Airport View

Enter AWOS ICAO identifier for current METAR.

ex. KFNL

KAIZ 080256Z AUTO 15003KT 10SM CLR 26/23 A2996 RMK AO2 SLP135 T02560228 53005

8 Jul 2020 04:01

Frequency: 135.325

Phone: 573-348-0847

Other Area AWOS: KOZS - KLBO - KTBN - KJEF

TAF KCOU 072324Z 0800/0824 VRB04KT P6SM FEW060 FM081600 17006KT P6SM SCT050